createdAt,value
2022-09-17T00:01:25.244Z,5.85
2022-09-17T00:03:56.492Z,5.35
2022-09-17T00:06:24.460Z,7.28
2022-09-17T00:08:51.347Z,5.38
2022-09-17T00:11:21.381Z,6.80
2022-09-17T00:13:48.754Z,6.15
2022-09-17T00:16:27.488Z,5.10
2022-09-17T00:18:54.921Z,5.30
2022-09-17T00:21:21.876Z,5.75
2022-09-17T00:23:49.008Z,5.57
2022-09-17T00:26:15.983Z,4.80
2022-09-17T00:28:45.487Z,5.00
2022-09-17T00:31:12.517Z,6.20
2022-09-17T00:33:39.573Z,6.65
2022-09-17T00:36:06.688Z,6.45
2022-09-17T00:38:33.704Z,7.75
2022-09-17T00:41:01.175Z,7.95
2022-09-17T00:43:37.106Z,6.53
2022-09-17T00:46:05.960Z,6.43
2022-09-17T00:48:32.915Z,5.88
2022-09-17T00:51:01.299Z,6.18
2022-09-17T00:53:28.404Z,4.97
2022-09-17T00:56:03.178Z,4.88
2022-09-17T00:58:30.374Z,6.60
2022-09-17T01:00:57.342Z,6.40
2022-09-17T01:03:24.405Z,6.97
2022-09-17T01:06:14.651Z,4.90
2022-09-17T01:08:49.104Z,5.88
2022-09-17T01:11:25.007Z,6.40
2022-09-17T01:14:01.680Z,6.80
2022-09-17T01:16:53.813Z,6.78
2022-09-17T01:19:34.759Z,6.90
2022-09-17T01:22:07.055Z,6.10
2022-09-17T01:24:40.244Z,6.38
2022-09-17T01:27:35.143Z,6.13
2022-09-17T01:30:40.460Z,6.57
2022-09-17T01:33:22.741Z,5.82
2022-09-17T01:36:09.621Z,6.93
2022-09-17T01:39:02.642Z,6.03
2022-09-17T01:41:53.349Z,7.40
2022-09-17T01:44:51.490Z,6.90
2022-09-17T01:47:31.353Z,7.13
2022-09-17T01:50:01.626Z,6.07
2022-09-17T01:52:29.133Z,5.47
2022-09-17T01:54:57.317Z,7.00
2022-09-17T01:57:40.692Z,7.22
2022-09-17T02:00:11.215Z,7.05
2022-09-17T02:02:51.751Z,8.38
2022-09-17T02:05:30.871Z,8.32
2022-09-17T02:08:00.136Z,6.20
2022-09-17T02:10:29.575Z,6.53
2022-09-17T02:13:21.836Z,7.50
2022-09-17T02:18:28.487Z,6.10
2022-09-17T02:21:15.658Z,7.55
2022-09-17T02:24:15.715Z,13.38
2022-09-17T02:26:58.274Z,7.03
2022-09-17T02:29:40.186Z,8.15
2022-09-17T02:32:07.106Z,7.38
2022-09-17T02:34:34.750Z,7.35
2022-09-17T02:37:01.762Z,8.05
2022-09-17T02:39:28.770Z,8.07
2022-09-17T02:42:15.946Z,7.18
2022-09-17T02:45:20.210Z,11.13
2022-09-17T02:48:35.185Z,6.65
2022-09-17T02:51:45.154Z,8.40
2022-09-17T02:54:29.631Z,7.40
2022-09-17T02:57:14.709Z,7.55
2022-09-17T03:00:05.775Z,6.32
2022-09-17T03:02:36.301Z,8.45
2022-09-17T03:05:04.328Z,6.22
2022-09-17T03:07:32.836Z,7.07
2022-09-17T03:10:00.772Z,7.15
2022-09-17T03:12:27.763Z,7.07
2022-09-17T03:14:54.673Z,7.30
2022-09-17T03:17:21.538Z,8.05
2022-09-17T03:19:48.492Z,7.43
2022-09-17T03:22:15.619Z,6.82
2022-09-17T03:24:42.665Z,8.13
2022-09-17T03:27:09.558Z,7.65
2022-09-17T03:29:36.412Z,6.80
2022-09-17T03:32:03.714Z,6.88
2022-09-17T03:34:30.759Z,7.18
2022-09-17T03:36:57.641Z,9.55
2022-09-17T03:39:24.564Z,6.55
2022-09-17T03:41:51.553Z,9.57
2022-09-17T03:44:23.040Z,6.07
2022-09-17T03:46:50.714Z,6.93
2022-09-17T03:49:17.693Z,7.35
2022-09-17T03:51:45.513Z,8.18
2022-09-17T03:54:12.406Z,7.13
2022-09-17T03:56:39.476Z,6.78
2022-09-17T03:59:06.586Z,8.20
2022-09-17T04:01:33.607Z,7.80
2022-09-17T04:04:00.838Z,6.43
2022-09-17T04:06:28.049Z,7.57
2022-09-17T04:08:54.901Z,8.38
2022-09-17T04:11:21.870Z,9.38
2022-09-17T04:13:48.754Z,7.40
2022-09-17T04:16:16.142Z,7.80
2022-09-17T04:18:43.104Z,6.38
2022-09-17T04:21:10.138Z,8.07
2022-09-17T04:23:37.120Z,7.38
2022-09-17T04:26:04.683Z,8.73
2022-09-17T04:28:31.563Z,11.43
2022-09-17T04:30:58.433Z,6.97
2022-09-17T04:33:25.446Z,7.63
2022-09-17T04:35:54.171Z,8.05
2022-09-17T04:38:22.192Z,7.97
2022-09-17T04:40:49.207Z,8.13
2022-09-17T04:43:16.081Z,7.38
2022-09-17T04:45:46.129Z,7.20
2022-09-17T04:48:13.137Z,6.50
2022-09-17T04:50:40.243Z,6.93
2022-09-17T04:53:07.087Z,6.63
2022-09-17T04:55:34.101Z,6.90
2022-09-17T04:58:01.070Z,7.50
2022-09-17T05:00:28.037Z,7.25
2022-09-17T05:02:55.414Z,5.95
2022-09-17T05:05:23.219Z,8.68
2022-09-17T05:07:50.275Z,6.53
2022-09-17T05:10:18.075Z,7.80
2022-09-17T05:12:51.378Z,6.35
2022-09-17T05:15:18.416Z,6.72
2022-09-17T05:17:45.813Z,7.72
2022-09-17T05:20:13.015Z,6.47
2022-09-17T05:22:44.151Z,7.75
2022-09-17T05:25:12.083Z,6.60
2022-09-17T05:27:39.357Z,6.38
2022-09-17T05:30:07.063Z,7.47
2022-09-17T05:32:35.015Z,7.53
2022-09-17T05:35:05.401Z,7.15
2022-09-17T05:37:32.837Z,7.85
2022-09-17T05:39:59.822Z,6.22
2022-09-17T05:42:26.733Z,5.93
2022-09-17T05:44:53.820Z,7.57
2022-09-17T05:47:20.715Z,6.20
2022-09-17T05:49:47.593Z,8.27
2022-09-17T05:52:14.629Z,6.97
2022-09-17T05:54:41.585Z,7.57
2022-09-17T05:57:08.451Z,5.95
2022-09-17T05:59:36.306Z,6.43
2022-09-17T06:02:03.244Z,7.70
2022-09-17T06:04:34.593Z,8.70
2022-09-17T06:07:06.639Z,6.60
2022-09-17T06:09:36.520Z,6.57
2022-09-17T06:12:04.796Z,8.02
2022-09-17T06:14:31.712Z,6.45
2022-09-17T06:16:58.567Z,9.10
2022-09-17T06:19:25.489Z,6.60
2022-09-17T06:21:52.391Z,5.50
2022-09-17T06:24:19.284Z,5.57
2022-09-17T06:26:46.135Z,5.82
2022-09-17T06:29:15.259Z,7.50
2022-09-17T06:31:44.759Z,5.20
2022-09-17T06:34:12.336Z,8.40
2022-09-17T06:36:39.461Z,7.95
2022-09-17T06:39:06.673Z,5.90
2022-09-17T06:41:33.635Z,6.28
2022-09-17T06:44:04.226Z,6.00
2022-09-17T06:46:31.182Z,7.18
2022-09-17T06:48:59.067Z,6.15
2022-09-17T06:51:26.060Z,7.25
2022-09-17T06:53:53.062Z,5.65
2022-09-17T06:56:20.170Z,5.78
2022-09-17T06:58:47.061Z,6.55
2022-09-17T07:01:14.414Z,5.78
2022-09-17T07:03:43.002Z,6.15
2022-09-17T07:06:10.997Z,6.40
2022-09-17T07:08:38.168Z,5.85
2022-09-17T07:11:05.249Z,6.20
2022-09-17T07:13:32.198Z,6.25
2022-09-17T07:16:00.503Z,4.93
2022-09-17T07:18:27.660Z,6.70
2022-09-17T07:20:55.215Z,6.15
2022-09-17T07:23:23.924Z,6.10
2022-09-17T07:25:58.706Z,6.38
2022-09-17T07:28:26.134Z,6.25
2022-09-17T07:30:53.302Z,5.57
2022-09-17T07:33:23.573Z,6.25
2022-09-17T07:35:58.745Z,7.43
2022-09-17T07:38:25.944Z,6.63
2022-09-17T07:40:57.620Z,6.13
2022-09-17T07:43:29.169Z,5.20
2022-09-17T07:45:57.651Z,6.20
2022-09-17T07:48:24.581Z,5.65
2022-09-17T07:50:51.659Z,5.03
2022-09-17T07:53:18.592Z,6.65
2022-09-17T07:55:58.486Z,5.30
2022-09-17T07:58:30.472Z,8.90
2022-09-17T08:01:04.720Z,6.05
2022-09-17T08:03:31.662Z,7.18
2022-09-17T08:06:06.004Z,5.90
2022-09-17T08:08:33.818Z,7.43
2022-09-17T08:11:02.350Z,5.95
2022-09-17T08:13:29.888Z,6.68
2022-09-17T08:16:04.296Z,6.22
2022-09-17T08:18:31.542Z,6.32
2022-09-17T08:20:59.410Z,7.07
2022-09-17T08:23:26.865Z,7.18
2022-09-17T08:25:57.876Z,5.10
2022-09-17T08:28:25.536Z,5.25
2022-09-17T08:30:53.013Z,6.28
2022-09-17T08:33:20.038Z,6.07
2022-09-17T08:35:59.510Z,6.78
2022-09-17T08:38:27.510Z,7.13
2022-09-17T08:41:14.709Z,4.45
2022-09-17T08:44:19.497Z,5.72
2022-09-17T08:46:48.403Z,5.07
2022-09-17T08:49:30.839Z,5.13
2022-09-17T08:52:25.354Z,6.28
2022-09-17T08:55:13.425Z,6.00
2022-09-17T08:57:56.680Z,6.15
2022-09-17T09:00:24.280Z,5.80
2022-09-17T09:03:20.448Z,5.45
2022-09-17T09:05:53.319Z,4.50
2022-09-17T09:08:46.011Z,5.47
2022-09-17T09:11:17.638Z,5.65
2022-09-17T09:13:51.768Z,4.13
2022-09-17T09:16:27.189Z,5.43
2022-09-17T09:19:16.985Z,4.20
2022-09-17T09:21:51.581Z,4.97
2022-09-17T09:24:26.353Z,3.90
2022-09-17T09:27:18.697Z,4.93
2022-09-17T09:30:06.747Z,5.35
2022-09-17T09:33:12.975Z,5.15
2022-09-17T09:35:41.872Z,4.45
2022-09-17T09:38:31.348Z,5.38
2022-09-17T09:41:04.276Z,5.38
2022-09-17T09:44:04.806Z,4.13
2022-09-17T09:46:41.282Z,6.65
2022-09-17T09:49:30.379Z,5.75
2022-09-17T09:52:28.201Z,5.40
2022-09-17T09:55:33.507Z,4.82
2022-09-17T09:58:29.061Z,4.38
2022-09-17T10:00:55.926Z,3.78
2022-09-17T10:03:23.702Z,5.53
2022-09-17T10:06:00.807Z,6.57
2022-09-17T10:08:29.022Z,4.72
2022-09-17T10:10:58.665Z,3.33
2022-09-17T10:13:26.083Z,4.97
2022-09-17T10:15:53.220Z,3.60
2022-09-17T10:18:21.904Z,4.20
2022-09-17T10:20:59.562Z,5.75
2022-09-17T10:23:31.729Z,7.97
2022-09-17T10:25:58.689Z,4.35
2022-09-17T10:28:36.464Z,5.65
2022-09-17T10:31:09.038Z,4.70
2022-09-17T10:33:40.195Z,11.30
2022-09-17T10:36:08.806Z,4.57
2022-09-17T10:38:43.773Z,7.43
2022-09-17T10:41:14.585Z,8.40
2022-09-17T10:43:41.717Z,6.20
2022-09-17T10:46:14.410Z,4.57
2022-09-17T10:49:18.581Z,5.15
2022-09-17T10:51:45.581Z,5.20
2022-09-17T10:54:48.321Z,4.97
2022-09-17T10:57:19.579Z,3.65
2022-09-17T10:59:53.643Z,5.30
2022-09-17T11:02:45.270Z,3.30
2022-09-17T11:05:39.975Z,5.88
2022-09-17T11:08:25.509Z,5.00
2022-09-17T11:11:07.135Z,4.13
2022-09-17T11:13:49.000Z,4.35
2022-09-17T11:19:25.013Z,5.38
2022-09-17T11:22:03.220Z,2.83
2022-09-17T11:24:36.390Z,3.95
2022-09-17T11:27:26.579Z,3.92
2022-09-17T11:30:03.768Z,4.15
2022-09-17T11:32:45.716Z,2.72
2022-09-17T11:37:57.742Z,4.82
2022-09-17T11:40:29.447Z,4.75
2022-09-17T11:43:02.872Z,5.82
2022-09-17T11:45:41.207Z,3.00
2022-09-17T11:48:14.029Z,5.18
2022-09-17T11:50:46.767Z,3.60
2022-09-17T11:53:38.149Z,3.85
2022-09-17T11:56:34.193Z,4.85
2022-09-17T11:59:28.262Z,4.03
2022-09-17T12:02:04.214Z,4.50
2022-09-17T12:04:52.725Z,4.18
2022-09-17T12:07:41.242Z,5.00
2022-09-17T12:10:29.411Z,4.82
2022-09-17T12:13:09.681Z,4.72
2022-09-17T12:15:38.619Z,5.85
2022-09-17T12:18:32.201Z,6.68
2022-09-17T12:21:00.558Z,4.82
2022-09-17T12:23:38.869Z,3.75
2022-09-17T12:26:15.118Z,4.40
2022-09-17T12:28:51.204Z,3.85
2022-09-17T12:31:27.007Z,4.65
2022-09-17T12:34:23.550Z,4.72
2022-09-17T12:36:57.402Z,5.57
2022-09-17T12:39:36.442Z,4.35
2022-09-17T12:42:22.156Z,4.53
2022-09-17T12:45:04.023Z,4.28
2022-09-17T12:50:20.654Z,4.10
2022-09-17T12:52:57.641Z,4.15
2022-09-17T12:55:50.946Z,5.57
2022-09-17T12:58:27.397Z,3.95
2022-09-17T13:01:04.094Z,5.20
2022-09-17T13:03:55.970Z,5.03
2022-09-17T13:07:00.446Z,4.15
2022-09-17T13:09:37.386Z,4.10
2022-09-17T13:12:27.468Z,3.75
2022-09-17T13:15:03.622Z,6.13
2022-09-17T13:18:27.048Z,4.75
2022-09-17T13:21:06.807Z,7.15
2022-09-17T13:23:46.565Z,4.45
2022-09-17T13:26:17.130Z,5.15
2022-09-17T13:28:48.058Z,4.00
2022-09-17T13:31:48.842Z,4.40
2022-09-17T13:34:19.405Z,5.70
2022-09-17T13:36:52.144Z,5.13
2022-09-17T13:39:41.345Z,4.30
2022-09-17T13:42:20.304Z,4.88
2022-09-17T13:45:03.018Z,4.75
2022-09-17T13:47:37.025Z,4.95
2022-09-17T13:50:09.266Z,3.92
2022-09-17T13:52:39.625Z,5.35
2022-09-17T13:55:07.314Z,4.82
2022-09-17T13:57:35.210Z,4.30
2022-09-17T14:00:02.261Z,5.10
2022-09-17T14:02:39.316Z,5.40
2022-09-17T14:05:25.838Z,4.95
2022-09-17T14:07:53.100Z,3.88
2022-09-17T14:10:29.482Z,4.57
2022-09-17T14:12:58.806Z,4.47
2022-09-17T14:15:41.871Z,4.28
2022-09-17T14:18:27.479Z,2.78
2022-09-17T14:21:09.662Z,4.00
2022-09-17T14:23:47.560Z,6.32
2022-09-17T14:26:28.950Z,3.65
2022-09-17T14:29:08.269Z,4.55
2022-09-17T14:31:36.479Z,3.95
2022-09-17T14:34:08.724Z,5.03
2022-09-17T14:36:37.698Z,4.18
2022-09-17T14:39:06.515Z,4.15
2022-09-17T14:41:35.638Z,5.32
2022-09-17T14:44:15.487Z,4.85
2022-09-17T14:47:02.201Z,4.07
2022-09-17T14:49:33.698Z,4.82
2022-09-17T14:52:02.070Z,4.85
2022-09-17T14:54:36.313Z,4.68
2022-09-17T14:57:10.377Z,3.65
2022-09-17T14:59:56.836Z,5.88
2022-09-17T15:02:41.910Z,5.00
2022-09-17T15:05:21.431Z,4.88
2022-09-17T15:07:48.622Z,4.78
2022-09-17T15:10:20.560Z,5.82
2022-09-17T15:12:47.977Z,5.18
2022-09-17T15:15:20.745Z,5.78
2022-09-17T15:17:48.482Z,5.10
2022-09-17T15:20:28.241Z,4.22
2022-09-17T15:23:09.008Z,4.32
2022-09-17T15:25:35.955Z,3.75
2022-09-17T15:28:09.958Z,5.55
2022-09-17T15:30:36.990Z,3.78
2022-09-17T15:33:03.948Z,4.72
2022-09-17T15:35:32.177Z,5.25
2022-09-17T15:40:49.810Z,3.72
2022-09-17T15:43:31.321Z,4.35
2022-09-17T15:45:58.417Z,3.88
2022-09-17T15:48:28.149Z,4.95
2022-09-17T15:50:59.384Z,5.38
2022-09-17T15:53:31.141Z,4.38
2022-09-17T15:58:34.480Z,4.47
2022-09-17T16:01:31.212Z,5.43
2022-09-17T16:04:17.722Z,6.03
2022-09-17T16:07:18.381Z,5.63
2022-09-17T16:09:50.084Z,4.53
2022-09-17T16:14:49.473Z,4.07
2022-09-17T16:17:33.270Z,4.57
2022-09-17T16:20:05.931Z,3.85
2022-09-17T16:22:33.357Z,4.40
2022-09-17T16:25:00.259Z,3.78
2022-09-17T16:27:30.240Z,5.38
2022-09-17T16:30:02.628Z,3.55
2022-09-17T16:32:29.546Z,4.07
2022-09-17T16:34:56.507Z,4.88
2022-09-17T16:37:23.387Z,4.72
2022-09-17T16:39:51.499Z,4.00
2022-09-17T16:42:19.077Z,4.82
2022-09-17T16:44:46.183Z,4.85
2022-09-17T16:47:13.086Z,4.15
2022-09-17T16:49:40.012Z,4.53
2022-09-17T16:52:06.946Z,4.50
2022-09-17T16:54:33.868Z,4.55
2022-09-17T16:57:01.340Z,5.32
2022-09-17T16:59:28.284Z,6.07
2022-09-17T17:01:56.116Z,5.22
2022-09-17T17:04:25.687Z,5.03
2022-09-17T17:06:52.556Z,4.60
2022-09-17T17:09:29.105Z,4.45
2022-09-17T17:11:56.179Z,4.72
2022-09-17T17:14:23.159Z,8.45
2022-09-17T17:16:50.247Z,7.57
2022-09-17T17:19:17.833Z,5.75
2022-09-17T17:21:47.194Z,4.72
2022-09-17T17:24:14.392Z,5.25
2022-09-17T17:26:41.306Z,6.82
2022-09-17T17:29:09.058Z,5.43
2022-09-17T17:31:36.345Z,6.53
2022-09-17T17:34:03.384Z,6.22
2022-09-17T17:36:32.020Z,5.93
2022-09-17T17:38:59.455Z,6.00
2022-09-17T17:41:27.400Z,5.40
2022-09-17T17:43:55.057Z,5.25
2022-09-17T17:46:23.263Z,5.57
2022-09-17T17:48:51.018Z,6.22
2022-09-17T17:51:23.811Z,5.13
2022-09-17T17:53:53.738Z,5.78
2022-09-17T17:56:20.747Z,4.93
2022-09-17T17:58:49.426Z,4.05
2022-09-17T18:01:20.920Z,4.80
2022-09-17T18:03:48.068Z,7.43
2022-09-17T18:06:15.216Z,9.23
2022-09-17T18:08:44.398Z,4.88
2022-09-17T18:11:11.445Z,5.90
2022-09-17T18:13:38.860Z,7.07
2022-09-17T18:16:06.465Z,4.90
2022-09-17T18:18:42.118Z,6.45
2022-09-17T18:21:12.893Z,5.43
2022-09-17T18:23:40.321Z,8.95
2022-09-17T18:26:09.195Z,6.20
2022-09-17T18:28:36.601Z,5.82
2022-09-17T18:31:26.778Z,5.32
2022-09-17T18:34:01.417Z,5.63
2022-09-17T18:36:29.903Z,6.15
2022-09-17T18:39:11.049Z,5.35
2022-09-17T18:41:48.378Z,5.55
2022-09-17T18:44:15.388Z,5.95
2022-09-17T18:46:42.704Z,6.75
2022-09-17T18:49:09.993Z,7.70
2022-09-17T18:51:37.797Z,7.85
2022-09-17T18:54:04.788Z,7.75
2022-09-17T18:56:35.951Z,8.15
2022-09-17T18:59:07.704Z,6.68
2022-09-17T19:01:35.607Z,7.75
2022-09-17T19:04:02.950Z,7.57
2022-09-17T19:06:32.001Z,7.53
2022-09-17T19:09:02.672Z,7.45
2022-09-17T19:11:30.262Z,7.68
2022-09-17T19:13:57.470Z,6.75
2022-09-17T19:16:24.548Z,5.95
2022-09-17T19:18:51.897Z,5.88
2022-09-17T19:21:20.683Z,7.22
2022-09-17T19:23:49.308Z,10.55
2022-09-17T19:26:20.585Z,7.82
2022-09-17T19:28:47.818Z,6.72
2022-09-17T19:31:16.304Z,7.20
2022-09-17T19:33:43.589Z,6.43
2022-09-17T19:36:15.026Z,7.22
2022-09-17T19:38:42.053Z,6.53
2022-09-17T19:41:13.850Z,6.78
2022-09-17T19:46:11.174Z,7.22
2022-09-17T19:48:42.677Z,8.10
2022-09-17T19:51:09.576Z,7.38
2022-09-17T19:53:37.002Z,7.18
2022-09-17T19:56:04.025Z,8.30
2022-09-17T19:58:30.970Z,8.15
2022-09-17T20:00:58.307Z,8.57
2022-09-17T20:03:25.516Z,6.65
2022-09-17T20:06:02.599Z,7.57
2022-09-17T20:08:29.692Z,8.85
2022-09-17T20:10:56.782Z,12.02
2022-09-17T20:13:25.386Z,9.07
2022-09-17T20:15:52.651Z,8.35
2022-09-17T20:18:23.276Z,8.25
2022-09-17T20:20:50.664Z,9.87
2022-09-17T20:23:17.566Z,7.57
2022-09-17T20:25:51.877Z,9.82
2022-09-17T20:28:18.892Z,9.50
2022-09-17T20:30:46.172Z,10.73
2022-09-17T20:33:13.475Z,11.27
2022-09-17T20:35:40.403Z,10.23
2022-09-17T20:40:54.751Z,10.20
2022-09-17T20:43:21.934Z,12.93
2022-09-17T20:45:55.701Z,13.32
2022-09-17T20:48:22.993Z,10.55
2022-09-17T20:50:56.615Z,13.60
2022-09-17T20:53:24.099Z,11.55
2022-09-17T20:55:58.242Z,13.13
2022-09-17T20:58:26.846Z,12.90
2022-09-17T21:00:54.671Z,12.55
2022-09-17T21:03:23.050Z,12.65
2022-09-17T21:05:49.955Z,11.40
2022-09-17T21:08:16.857Z,12.18
2022-09-17T21:10:44.237Z,14.38
2022-09-17T21:13:11.150Z,13.35
2022-09-17T21:15:38.091Z,14.10
2022-09-17T21:18:06.102Z,13.25
2022-09-17T21:20:37.482Z,11.95
2022-09-17T21:23:04.739Z,10.90
2022-09-17T21:25:31.696Z,10.23
2022-09-17T21:27:58.706Z,12.75
2022-09-17T21:30:25.710Z,12.40
2022-09-17T21:32:53.656Z,12.52
2022-09-17T21:35:20.572Z,12.40
2022-09-17T21:37:47.495Z,10.90
2022-09-17T21:40:14.482Z,12.70
2022-09-17T21:42:41.508Z,13.27
2022-09-17T21:45:08.640Z,13.00
2022-09-17T21:47:35.537Z,11.40
2022-09-17T21:50:02.565Z,10.98
2022-09-17T21:52:30.118Z,11.77
2022-09-17T21:54:57.029Z,11.38
2022-09-17T21:57:24.047Z,10.63
2022-09-17T21:59:50.968Z,11.35
2022-09-17T22:02:18.056Z,11.30
2022-09-17T22:04:44.930Z,11.70
2022-09-17T22:07:11.789Z,13.27
2022-09-17T22:09:41.470Z,12.75
2022-09-17T22:12:08.868Z,10.68
2022-09-17T22:14:37.693Z,11.38
2022-09-17T22:17:04.652Z,12.45
2022-09-17T22:19:31.544Z,12.57
2022-09-17T22:21:58.409Z,10.05
2022-09-17T22:24:25.433Z,11.30
2022-09-17T22:26:57.268Z,10.30
2022-09-17T22:29:26.088Z,9.85
2022-09-17T22:31:53.220Z,10.48
2022-09-17T22:34:21.294Z,11.32
2022-09-17T22:36:48.480Z,11.77
2022-09-17T22:39:15.492Z,10.63
2022-09-17T22:41:45.329Z,11.75
2022-09-17T22:44:14.190Z,9.13
2022-09-17T22:46:41.378Z,9.75
2022-09-17T22:49:09.547Z,9.68
2022-09-17T22:51:36.667Z,9.65
2022-09-17T22:54:03.783Z,10.02
2022-09-17T22:56:30.731Z,10.25
2022-09-17T22:58:58.487Z,10.35
2022-09-17T23:01:30.315Z,12.05
2022-09-17T23:03:57.724Z,10.38
2022-09-17T23:06:29.373Z,12.43
2022-09-17T23:08:56.848Z,9.82
2022-09-17T23:11:42.069Z,11.45
2022-09-17T23:14:11.301Z,11.38
2022-09-17T23:16:40.632Z,10.10
2022-09-17T23:19:07.553Z,10.57
2022-09-17T23:21:34.615Z,10.38
2022-09-17T23:24:02.200Z,10.93
2022-09-17T23:26:29.218Z,10.00
2022-09-17T23:28:57.378Z,10.75
2022-09-17T23:31:27.964Z,9.65
2022-09-17T23:33:55.502Z,11.57
2022-09-17T23:36:29.550Z,10.75
2022-09-17T23:38:57.535Z,12.50
2022-09-17T23:41:26.246Z,9.55
2022-09-17T23:43:57.841Z,11.95
2022-09-17T23:46:25.559Z,17.67
2022-09-17T23:48:53.569Z,14.93
2022-09-17T23:51:21.964Z,10.25
2022-09-17T23:53:49.134Z,11.23
2022-09-17T23:56:21.344Z,9.88
2022-09-17T23:58:48.977Z,11.98
